createdAt,value
2018-09-02T00:00:06.162Z,90.42
2018-09-02T00:01:06.156Z,89.70
2018-09-02T00:02:06.143Z,90.32
2018-09-02T00:03:06.134Z,89.60
2018-09-02T00:04:06.145Z,89.50
2018-09-02T00:05:06.113Z,90.11
2018-09-02T00:06:06.101Z,90.52
2018-09-02T00:07:06.089Z,91.03
2018-09-02T00:08:06.078Z,90.67
2018-09-02T00:09:06.098Z,90.11
2018-09-02T00:10:06.056Z,89.75
2018-09-02T00:11:06.051Z,91.18
2018-09-02T00:12:06.036Z,91.28
2018-09-02T00:13:06.025Z,91.28
2018-09-02T00:14:06.017Z,90.52
2018-09-02T00:15:06.030Z,91.96
2018-09-02T00:16:06.009Z,91.80
2018-09-02T00:17:06.021Z,90.93
2018-09-02T00:18:05.973Z,91.86
2018-09-02T00:19:05.959Z,90.46
2018-09-02T00:20:05.991Z,91.18
2018-09-02T00:21:05.940Z,92.00
2018-09-02T00:22:05.948Z,91.49
2018-09-02T00:23:05.920Z,91.38
2018-09-02T00:24:05.907Z,91.69
2018-09-02T00:25:05.922Z,91.49
2018-09-02T00:26:05.888Z,91.80
2018-09-02T00:27:05.873Z,91.08
2018-09-02T00:28:05.863Z,91.38
2018-09-02T00:29:05.853Z,91.59
2018-09-02T00:30:05.871Z,91.49
2018-09-02T00:31:05.830Z,92.04
2018-09-02T00:32:05.819Z,92.14
2018-09-02T00:33:05.843Z,91.94
2018-09-02T00:34:05.807Z,91.84
2018-09-02T00:35:05.789Z,92.51
2018-09-02T00:36:05.806Z,91.94
2018-09-02T00:37:05.774Z,91.84
2018-09-02T00:38:05.759Z,92.76
2018-09-02T00:39:05.745Z,92.25
2018-09-02T00:40:05.734Z,92.55
2018-09-02T00:41:05.750Z,92.97
2018-09-02T00:42:05.709Z,92.76
2018-09-02T00:43:05.708Z,92.35
2018-09-02T00:44:05.689Z,92.19
2018-09-02T00:45:05.677Z,92.19
2018-09-02T00:46:05.666Z,92.55
2018-09-02T00:47:05.682Z,93.38
2018-09-02T00:48:05.646Z,93.52
2018-09-02T00:49:05.638Z,93.38
2018-09-02T00:50:05.624Z,93.42
2018-09-02T00:51:05.613Z,93.42
2018-09-02T00:52:05.631Z,92.80
2018-09-02T00:53:05.590Z,92.50
2018-09-02T00:54:05.582Z,92.70
2018-09-02T00:55:05.571Z,93.12
2018-09-02T00:56:05.559Z,93.63
2018-09-02T00:57:05.586Z,93.83
2018-09-02T00:58:05.537Z,93.83
2018-09-02T00:59:05.527Z,93.63
2018-09-02T01:00:05.520Z,93.93
2018-09-02T01:01:05.507Z,94.04
2018-09-02T01:02:05.494Z,93.83
2018-09-02T01:03:05.506Z,93.83
2018-09-02T01:04:05.471Z,94.04
2018-09-02T01:05:05.463Z,92.50
2018-09-02T01:06:05.452Z,92.60
2018-09-02T01:07:05.441Z,93.73
2018-09-02T01:08:05.462Z,94.04
2018-09-02T01:09:05.415Z,93.73
2018-09-02T01:10:05.406Z,93.73
2018-09-02T01:11:05.396Z,93.21
2018-09-02T01:12:05.385Z,93.73
2018-09-02T01:13:05.372Z,94.04
2018-09-02T01:14:05.400Z,93.32
2018-09-02T01:15:05.350Z,92.80
2018-09-02T01:16:05.341Z,93.83
2018-09-02T01:17:05.329Z,93.36
2018-09-02T01:18:05.318Z,94.24
2018-09-02T01:19:05.332Z,94.04
2018-09-02T01:20:05.294Z,93.98
2018-09-02T01:21:05.285Z,93.77
2018-09-02T01:22:05.273Z,93.52
2018-09-02T01:23:05.306Z,93.57
2018-09-02T01:24:05.287Z,93.46
2018-09-02T01:25:05.243Z,93.61
2018-09-02T01:26:05.228Z,93.98
2018-09-02T01:27:05.223Z,93.77
2018-09-02T01:28:05.208Z,94.18
2018-09-02T01:29:05.205Z,94.33
2018-09-02T01:30:08.005Z,94.43
2018-09-02T01:31:05.187Z,94.84
2018-09-02T01:32:05.164Z,94.80
2018-09-02T01:33:05.152Z,94.59
2018-09-02T01:34:05.143Z,95.10
2018-09-02T01:35:05.156Z,94.84
2018-09-02T01:36:05.130Z,94.95
2018-09-02T01:37:05.109Z,94.84
2018-09-02T01:38:05.096Z,94.64
2018-09-02T01:39:05.087Z,94.02
2018-09-02T01:40:05.108Z,94.43
2018-09-02T01:41:05.063Z,94.43
2018-09-02T01:42:05.056Z,94.64
2018-09-02T01:43:05.040Z,94.74
2018-09-02T01:44:05.030Z,94.95
2018-09-02T01:45:05.027Z,95.77
2018-09-02T01:46:05.031Z,95.72
2018-09-02T01:47:05.015Z,96.03
2018-09-02T01:48:04.992Z,95.67
2018-09-02T01:49:04.975Z,95.46
2018-09-02T01:50:04.966Z,95.56
2018-09-02T01:51:04.978Z,95.93
2018-09-02T01:52:04.945Z,95.46
2018-09-02T01:53:04.935Z,94.95
2018-09-02T01:54:04.923Z,94.54
2018-09-02T01:55:04.909Z,94.84
2018-09-02T01:56:04.933Z,94.84
2018-09-02T01:57:04.886Z,95.97
2018-09-02T01:58:04.879Z,95.67
2018-09-02T01:59:04.872Z,94.84
2018-09-02T02:00:04.853Z,94.84
2018-09-02T02:01:04.842Z,94.74
2018-09-02T02:02:04.856Z,94.84
2018-09-02T02:03:04.829Z,94.68
2018-09-02T02:04:04.810Z,94.37
2018-09-02T02:05:04.801Z,94.27
2018-09-02T02:06:04.789Z,94.37
2018-09-02T02:07:04.801Z,94.89
2018-09-02T02:08:04.771Z,95.61
2018-09-02T02:09:04.755Z,95.61
2018-09-02T02:10:04.746Z,95.40
2018-09-02T02:11:04.734Z,95.61
2018-09-02T02:12:04.755Z,94.89
2018-09-02T02:13:04.711Z,94.58
2018-09-02T02:14:04.700Z,94.78
2018-09-02T02:15:04.693Z,95.50
2018-09-02T02:16:04.681Z,95.81
2018-09-02T02:17:04.671Z,95.61
2018-09-02T02:18:04.680Z,95.30
2018-09-02T02:19:04.647Z,95.50
2018-09-02T02:20:04.637Z,95.71
2018-09-02T02:21:04.624Z,95.92
2018-09-02T02:22:04.618Z,95.71
2018-09-02T02:23:04.628Z,95.50
2018-09-02T02:24:04.595Z,95.75
2018-09-02T02:25:04.583Z,95.92
2018-09-02T02:26:04.569Z,96.06
2018-09-02T02:27:04.561Z,95.96
2018-09-02T02:28:04.573Z,95.71
2018-09-02T02:29:04.537Z,95.92
2018-09-02T02:30:04.533Z,96.64
2018-09-02T02:31:04.515Z,96.37
2018-09-02T02:32:04.504Z,96.47
2018-09-02T02:33:04.521Z,96.89
2018-09-02T02:34:04.487Z,96.47
2018-09-02T02:35:04.472Z,96.58
2018-09-02T02:36:04.461Z,96.68
2018-09-02T02:37:04.449Z,96.68
2018-09-02T02:38:04.439Z,96.58
2018-09-02T02:39:04.451Z,95.86
2018-09-02T02:40:04.416Z,96.27
2018-09-02T02:41:04.412Z,96.68
2018-09-02T02:42:04.395Z,96.62
2018-09-02T02:43:04.383Z,96.62
2018-09-02T02:44:04.396Z,96.52
2018-09-02T02:45:04.364Z,96.72
2018-09-02T02:46:04.355Z,97.44
2018-09-02T02:47:04.338Z,97.09
2018-09-02T02:48:04.328Z,97.81
2018-09-02T02:49:04.343Z,98.02
2018-09-02T02:50:04.306Z,97.91
2018-09-02T02:51:04.297Z,98.43
2018-09-02T02:52:04.283Z,98.16
2018-09-02T02:53:04.279Z,98.37
2018-09-02T02:54:04.323Z,98.53
2018-09-02T02:55:04.251Z,98.37
2018-09-02T02:56:04.243Z,97.96
2018-09-02T02:57:04.234Z,97.65
2018-09-02T02:58:04.220Z,97.44
2018-09-02T02:59:04.208Z,97.03
2018-09-02T03:00:04.235Z,97.65
2018-09-02T03:01:04.190Z,97.44
2018-09-02T03:02:04.176Z,97.96
2018-09-02T03:03:04.166Z,98.27
2018-09-02T03:04:04.157Z,98.37
2018-09-02T03:05:04.144Z,98.99
2018-09-02T03:06:04.156Z,98.88
2018-09-02T03:07:04.121Z,98.16
2018-09-02T03:08:04.115Z,97.96
2018-09-02T03:09:04.100Z,98.33
2018-09-02T03:10:04.092Z,98.79
2018-09-02T03:11:04.103Z,97.86
2018-09-02T03:12:04.066Z,97.96
2018-09-02T03:13:04.054Z,98.99
2018-09-02T03:14:04.052Z,98.68
2018-09-02T03:15:04.032Z,98.47
2018-09-02T03:16:04.047Z,98.99
2018-09-02T03:17:04.028Z,98.06
2018-09-02T03:18:04.005Z,98.16
2018-09-02T03:19:03.989Z,98.27
2018-09-02T03:20:03.982Z,98.79
2018-09-02T03:21:03.991Z,98.62
2018-09-02T03:22:03.960Z,98.68
2018-09-02T03:23:03.949Z,98.79
2018-09-02T03:24:03.935Z,98.62
2018-09-02T03:25:03.929Z,98.52
2018-09-02T03:26:03.940Z,98.62
2018-09-02T03:27:03.903Z,98.72
2018-09-02T03:28:03.892Z,98.83
2018-09-02T03:29:03.882Z,98.72
2018-09-02T03:30:03.870Z,98.72
2018-09-02T03:31:03.907Z,98.93
2018-09-02T03:32:03.849Z,98.11
2018-09-02T03:33:03.840Z,98.42
2018-09-02T03:34:03.827Z,98.21
2018-09-02T03:35:03.822Z,98.68
2018-09-02T03:36:03.808Z,99.34
2018-09-02T03:37:03.819Z,99.40
2018-09-02T03:38:03.784Z,99.14
2018-09-02T03:39:03.772Z,99.24
2018-09-02T03:40:03.761Z,99.44
2018-09-02T03:41:03.753Z,99.76
2018-09-02T03:42:03.740Z,99.24
2018-09-02T03:43:03.752Z,99.44
2018-09-02T03:44:03.716Z,98.99
2018-09-02T03:45:03.708Z,99.24
2018-09-02T03:46:03.704Z,99.14
2018-09-02T03:47:03.684Z,99.14
2018-09-02T03:48:03.697Z,99.44
2018-09-02T03:49:03.664Z,99.44
2018-09-02T03:50:03.657Z,99.65
2018-09-02T03:51:03.640Z,99.34
2018-09-02T03:52:03.631Z,99.86
2018-09-02T03:53:03.649Z,98.93
2018-09-02T03:54:03.611Z,99.65
2018-09-02T03:55:03.597Z,98.52
2018-09-02T03:56:03.592Z,99.14
2018-09-02T03:57:03.575Z,98.93
2018-09-02T03:58:03.588Z,99.44
2018-09-02T03:59:03.557Z,99.24
2018-09-02T04:00:03.547Z,99.65
2018-09-02T04:01:03.531Z,99.04
2018-09-02T04:02:03.519Z,99.24
2018-09-02T04:03:03.544Z,99.24
2018-09-02T04:04:03.499Z,99.04
2018-09-02T04:05:03.487Z,99.04
2018-09-02T04:06:03.478Z,99.86
2018-09-02T04:07:03.468Z,99.76
2018-09-02T04:08:03.452Z,98.93
2018-09-02T04:09:03.478Z,99.55
2018-09-02T04:10:03.436Z,99.65
2018-09-02T04:11:03.423Z,99.55
2018-09-02T04:12:03.412Z,99.86
2018-09-02T04:13:03.399Z,99.86
2018-09-02T04:14:03.455Z,99.96
2018-09-02T04:15:03.410Z,99.99
2018-09-02T04:16:03.367Z,99.24
2018-09-02T04:17:03.357Z,99.49
2018-09-02T04:18:03.346Z,99.60
2018-09-02T04:19:03.340Z,99.44
2018-09-02T04:20:03.349Z,99.76
2018-09-02T04:21:03.315Z,99.86
2018-09-02T04:22:03.301Z,99.96
2018-09-02T04:23:03.291Z,99.99
2018-09-02T04:24:03.284Z,99.86
2018-09-02T04:25:03.295Z,99.99
2018-09-02T04:26:03.257Z,99.96
2018-09-02T04:27:03.247Z,99.86
2018-09-02T04:28:03.236Z,99.99
2018-09-02T04:29:03.233Z,99.99
2018-09-02T04:30:03.243Z,99.99
2018-09-02T04:31:03.203Z,99.99
2018-09-02T04:32:03.192Z,99.99
2018-09-02T04:33:03.183Z,99.99
2018-09-02T04:34:03.172Z,99.99
2018-09-02T04:35:03.192Z,99.99
2018-09-02T04:36:03.153Z,99.99
2018-09-02T04:37:03.138Z,99.99
2018-09-02T04:38:03.127Z,99.99
2018-09-02T04:39:03.117Z,99.99
2018-09-02T04:40:03.109Z,99.99
2018-09-02T04:41:03.123Z,99.80
2018-09-02T04:42:03.089Z,99.29
2018-09-02T04:43:03.074Z,98.97
2018-09-02T04:44:03.062Z,98.97
2018-09-02T04:45:03.066Z,99.29
2018-09-02T04:46:03.049Z,99.39
2018-09-02T04:47:03.058Z,99.18
2018-09-02T04:48:03.022Z,99.80
2018-09-02T04:49:03.011Z,99.29
2018-09-02T04:50:03.000Z,99.39
2018-09-02T04:51:03.023Z,99.49
2018-09-02T04:52:02.979Z,99.99
2018-09-02T04:53:02.970Z,99.99
2018-09-02T04:54:02.958Z,99.99
2018-09-02T04:55:02.948Z,99.99
2018-09-02T04:56:02.964Z,99.99
2018-09-02T04:57:02.925Z,99.99
2018-09-02T04:58:02.920Z,99.99
2018-09-02T04:59:02.906Z,99.99
2018-09-02T05:00:02.894Z,99.99
2018-09-02T05:01:02.891Z,99.99
2018-09-02T05:02:02.910Z,99.99
2018-09-02T05:03:02.863Z,99.99
2018-09-02T05:04:02.855Z,99.99
2018-09-02T05:05:02.847Z,99.99
2018-09-02T05:06:02.832Z,99.99
2018-09-02T05:07:02.843Z,99.99
2018-09-02T05:08:02.810Z,99.99
2018-09-02T05:09:02.799Z,99.99
2018-09-02T05:10:02.796Z,99.90
2018-09-02T05:11:02.777Z,99.80
2018-09-02T05:12:02.795Z,99.99
2018-09-02T05:13:02.757Z,99.70
2018-09-02T05:14:02.791Z,99.29
2018-09-02T05:15:02.736Z,99.99
2018-09-02T05:16:02.724Z,99.96
2018-09-02T05:17:02.740Z,99.99
2018-09-02T05:18:02.701Z,99.99
2018-09-02T05:19:02.692Z,99.65
2018-09-02T05:20:02.679Z,99.34
2018-09-02T05:21:02.670Z,99.34
2018-09-02T05:22:02.683Z,99.24
2018-09-02T05:23:02.649Z,99.04
2018-09-02T05:24:02.637Z,98.93
2018-09-02T05:25:02.627Z,99.24
2018-09-02T05:26:02.615Z,99.44
2018-09-02T05:27:02.646Z,99.34
2018-09-02T05:28:02.611Z,99.65
2018-09-02T05:29:02.581Z,99.44
2018-09-02T05:30:02.574Z,99.96
2018-09-02T05:31:02.560Z,99.96
2018-09-02T05:32:02.549Z,99.99
2018-09-02T05:33:02.568Z,99.99
2018-09-02T05:34:02.529Z,99.99
2018-09-02T05:35:02.537Z,99.51
2018-09-02T05:36:02.504Z,99.40
2018-09-02T05:37:02.570Z,99.71
2018-09-02T05:38:02.488Z,99.19
2018-09-02T05:39:02.505Z,99.30
2018-09-02T05:40:02.468Z,99.40
2018-09-02T05:41:02.457Z,99.19
2018-09-02T05:42:02.445Z,98.84
2018-09-02T05:43:02.429Z,99.19
2018-09-02T05:44:02.592Z,99.71
2018-09-02T05:45:02.412Z,99.15
2018-09-02T05:46:02.398Z,99.15
2018-09-02T05:47:02.388Z,99.99
2018-09-02T05:48:02.431Z,99.99
2018-09-02T05:49:02.392Z,99.82
2018-09-02T05:50:02.355Z,99.99
2018-09-02T05:51:02.345Z,99.98
2018-09-02T05:52:02.339Z,99.99
2018-09-02T05:53:02.321Z,99.88
2018-09-02T05:54:02.344Z,99.21
2018-09-02T05:55:02.300Z,99.01
2018-09-02T05:56:02.302Z,99.07
2018-09-02T05:57:02.283Z,98.66
2018-09-02T05:58:02.268Z,98.61
2018-09-02T05:59:02.259Z,97.69
2018-09-02T06:00:02.272Z,97.38
2018-09-02T06:01:02.236Z,96.62
2018-09-02T06:02:02.229Z,95.90
2018-09-02T06:03:02.216Z,94.62
2018-09-02T06:04:02.207Z,94.73
2018-09-02T06:05:02.243Z,94.78
2018-09-02T06:06:02.186Z,94.17
2018-09-02T06:07:02.173Z,94.27
2018-09-02T06:08:02.169Z,94.58
2018-09-02T06:09:02.155Z,93.00
2018-09-02T06:10:02.141Z,93.51
2018-09-02T06:11:02.164Z,93.51
2018-09-02T06:12:02.119Z,93.51
2018-09-02T06:13:02.110Z,93.77
2018-09-02T06:14:02.097Z,93.67
2018-09-02T06:15:02.102Z,93.26
2018-09-02T06:16:02.102Z,92.96
2018-09-02T06:17:02.068Z,91.83
2018-09-02T06:18:02.055Z,91.31
2018-09-02T06:19:02.046Z,90.36
2018-09-02T06:20:02.038Z,90.56
2018-09-02T06:21:02.061Z,90.56
2018-09-02T06:22:02.016Z,90.00
2018-09-02T06:23:02.001Z,88.37
2018-09-02T06:24:01.993Z,88.68
2018-09-02T06:25:01.981Z,87.20
2018-09-02T06:26:01.972Z,86.79
2018-09-02T06:27:01.984Z,85.73
2018-09-02T06:28:01.950Z,87.26
2018-09-02T06:29:01.937Z,85.28
2018-09-02T06:30:01.999Z,85.08
2018-09-02T06:31:01.915Z,83.92
2018-09-02T06:32:01.928Z,83.81
2018-09-02T06:33:02.050Z,84.59
2018-09-02T06:34:01.882Z,84.74
2018-09-02T06:35:01.915Z,83.78
2018-09-02T06:36:01.863Z,82.45
2018-09-02T06:37:01.875Z,81.90
2018-09-02T06:38:01.841Z,81.90
2018-09-02T06:39:01.834Z,81.96
2018-09-02T06:40:01.819Z,80.57
2018-09-02T06:41:01.812Z,80.47
2018-09-02T06:42:01.821Z,80.82
2018-09-02T06:43:01.787Z,82.24
2018-09-02T06:44:01.776Z,83.63
2018-09-02T06:45:01.779Z,81.18
2018-09-02T06:46:01.754Z,80.98
2018-09-02T06:47:01.779Z,81.39
2018-09-02T06:48:01.736Z,81.70
2018-09-02T06:49:01.721Z,80.98
2018-09-02T06:50:01.726Z,79.82
2018-09-02T06:51:01.701Z,80.09
2018-09-02T06:52:01.692Z,78.63
2018-09-02T06:53:01.703Z,77.91
2018-09-02T06:54:01.670Z,77.67
2018-09-02T06:55:01.658Z,76.52
2018-09-02T06:56:01.648Z,75.81
2018-09-02T06:57:01.659Z,75.60
2018-09-02T06:58:01.654Z,75.81
2018-09-02T06:59:01.613Z,75.77
2018-09-02T07:00:01.627Z,75.43
2018-09-02T07:01:01.593Z,74.52
2018-09-02T07:02:01.582Z,74.62
2018-09-02T07:03:01.603Z,73.57
2018-09-02T07:04:01.563Z,72.62
2018-09-02T07:05:01.553Z,70.96
2018-09-02T07:06:01.542Z,70.92
2018-09-02T07:07:01.529Z,69.27
2018-09-02T07:08:01.522Z,67.58
2018-09-02T07:09:01.536Z,66.64
2018-09-02T07:10:01.511Z,64.96
2018-09-02T07:11:01.484Z,63.76
2018-09-02T07:12:01.475Z,62.41
2018-09-02T07:13:01.463Z,60.44
2018-09-02T07:14:01.488Z,59.27
2018-09-02T07:15:01.444Z,60.48
2018-09-02T07:16:01.433Z,59.90
2018-09-02T07:17:01.422Z,61.00
2018-09-02T07:18:01.410Z,62.98
2018-09-02T07:19:01.415Z,65.13
2018-09-02T07:20:01.425Z,65.12
2018-09-02T07:21:01.378Z,66.27
2018-09-02T07:22:01.377Z,67.72
2018-09-02T07:23:01.393Z,68.39
2018-09-02T07:24:01.347Z,69.60
2018-09-02T07:25:01.375Z,69.71
2018-09-02T07:26:01.327Z,71.13
2018-09-02T07:27:01.317Z,71.13
2018-09-02T07:28:01.304Z,71.73
2018-09-02T07:29:01.302Z,71.13
2018-09-02T07:30:01.281Z,71.23
2018-09-02T07:31:01.296Z,70.83
2018-09-02T07:32:01.265Z,70.72
2018-09-02T07:33:01.250Z,69.91
2018-09-02T07:34:01.247Z,71.23
2018-09-02T07:35:01.240Z,70.83
2018-09-02T07:36:01.240Z,71.23
2018-09-02T07:37:01.209Z,71.03
2018-09-02T07:38:01.201Z,71.13
2018-09-02T07:39:01.183Z,70.92
2018-09-02T07:40:01.176Z,70.83
2018-09-02T07:41:01.191Z,71.03
2018-09-02T07:42:01.155Z,70.39
2018-09-02T07:43:01.139Z,70.92
2018-09-02T07:44:01.184Z,70.89
2018-09-02T07:45:01.119Z,70.79
2018-09-02T07:46:01.109Z,70.48
2018-09-02T07:47:01.125Z,70.89
2018-09-02T07:48:01.093Z,70.96
2018-09-02T07:49:01.077Z,69.84
2018-09-02T07:50:01.069Z,70.76
2018-09-02T07:51:01.071Z,71.06
2018-09-02T07:52:01.074Z,71.26
2018-09-02T07:53:01.037Z,70.96
2018-09-02T07:54:01.031Z,70.96
2018-09-02T07:55:01.013Z,70.45
2018-09-02T07:56:01.003Z,70.76
2018-09-02T07:57:00.989Z,70.93
2018-09-02T07:58:01.005Z,70.62
2018-09-02T07:59:00.969Z,70.32
2018-09-02T08:00:00.995Z,70.52
2018-09-02T08:01:00.948Z,71.44
2018-09-02T08:02:00.946Z,70.93
2018-09-02T08:03:00.950Z,70.69
2018-09-02T08:04:00.915Z,70.49
2018-09-02T08:05:00.905Z,70.69
2018-09-02T08:06:00.895Z,71.60
2018-09-02T08:07:00.907Z,71.67
2018-09-02T08:08:00.904Z,72.17
2018-09-02T08:09:00.863Z,70.76
2018-09-02T08:10:00.852Z,71.16
2018-09-02T08:11:00.845Z,70.45
2018-09-02T08:12:00.838Z,70.62
2018-09-02T08:13:00.844Z,70.22
2018-09-02T08:14:00.845Z,70.62
2018-09-02T08:15:00.799Z,70.62
2018-09-02T08:16:00.787Z,70.59
2018-09-02T08:17:00.839Z,70.49
2018-09-02T08:18:00.766Z,70.69
2018-09-02T08:19:00.791Z,70.49
2018-09-02T08:20:00.776Z,69.89
2018-09-02T08:21:00.755Z,69.24
2018-09-02T08:22:00.724Z,69.85
2018-09-02T08:23:00.717Z,69.24
2018-09-02T08:24:00.709Z,69.85
2018-09-02T08:25:00.715Z,69.04
2018-09-02T08:26:00.679Z,68.74
2018-09-02T08:27:00.683Z,68.74
2018-09-02T08:28:00.659Z,69.01
2018-09-02T08:29:00.647Z,69.11
2018-09-02T08:30:00.660Z,68.51
2018-09-02T08:31:00.626Z,68.10
2018-09-02T08:32:00.630Z,68.10
2018-09-02T08:33:00.666Z,68.17
2018-09-02T08:34:00.594Z,68.10
2018-09-02T08:35:00.605Z,68.40
2018-09-02T08:36:00.572Z,68.47
2018-09-02T08:37:00.567Z,67.66
2018-09-02T08:38:00.552Z,67.56
2018-09-02T08:39:00.558Z,67.83
2018-09-02T08:40:00.559Z,67.40
2018-09-02T08:41:00.519Z,66.69
2018-09-02T08:42:00.509Z,67.10
2018-09-02T08:43:00.498Z,67.30
2018-09-02T08:44:00.494Z,66.89
2018-09-02T08:45:00.478Z,66.49
2018-09-02T08:46:00.491Z,66.69
2018-09-02T08:47:00.455Z,66.96
2018-09-02T08:48:00.445Z,65.85
2018-09-02T08:49:00.437Z,66.05
2018-09-02T08:50:00.421Z,66.25
2018-09-02T08:51:00.411Z,65.22
2018-09-02T08:52:00.442Z,65.01
2018-09-02T08:53:00.388Z,64.92
2018-09-02T08:54:00.387Z,65.12
2018-09-02T08:55:00.402Z,65.22
2018-09-02T08:56:00.423Z,65.39
2018-09-02T08:57:00.370Z,65.39
2018-09-02T08:58:00.334Z,64.89
2018-09-02T08:59:00.326Z,64.15
2018-09-02T09:00:00.316Z,64.65
2018-09-02T09:01:00.309Z,63.95
2018-09-02T09:02:00.321Z,64.02
2018-09-02T09:03:00.284Z,63.42
2018-09-02T09:04:00.274Z,63.31
2018-09-02T09:05:00.273Z,64.42
2018-09-02T09:06:00.253Z,63.42
2018-09-02T09:07:00.251Z,63.68
2018-09-02T09:08:00.411Z,63.08
2018-09-02T09:09:00.637Z,63.28
2018-09-02T09:10:00.208Z,62.95
2018-09-02T09:11:00.210Z,63.35
2018-09-02T09:12:00.209Z,63.35
2018-09-02T09:13:00.290Z,62.75
2018-09-02T09:14:00.231Z,63.15
2018-09-02T09:15:00.163Z,62.24
2018-09-02T09:16:00.150Z,62.52
2018-09-02T09:17:00.182Z,62.72
2018-09-02T09:18:00.124Z,62.42
2018-09-02T09:19:00.147Z,62.12
2018-09-02T09:20:00.102Z,61.38
2018-09-02T09:21:00.091Z,60.78
2018-09-02T09:22:00.082Z,61.79
2018-09-02T09:23:00.071Z,60.88
2018-09-02T09:24:00.169Z,60.96
2018-09-02T09:25:00.088Z,60.96
2018-09-02T09:26:00.042Z,59.34
2018-09-02T09:27:00.027Z,59.82
2018-09-02T09:28:00.015Z,60.02
2018-09-02T09:29:00.031Z,59.12
2018-09-02T09:29:59.994Z,59.32
2018-09-02T09:30:59.984Z,59.92
2018-09-02T09:31:59.991Z,59.39
2018-09-02T09:32:59.972Z,58.79
2018-09-02T09:34:00.018Z,59.09
2018-09-02T09:34:59.940Z,58.49
2018-09-02T09:35:59.928Z,58.79
2018-09-02T09:36:59.919Z,59.06
2018-09-02T09:37:59.913Z,59.06
2018-09-02T09:38:59.898Z,59.03
2018-09-02T09:39:59.920Z,57.63
2018-09-02T09:40:59.875Z,57.70
2018-09-02T09:41:59.866Z,57.07
2018-09-02T09:42:59.869Z,56.37
2018-09-02T09:43:59.844Z,57.35
2018-09-02T09:44:59.854Z,57.15
2018-09-02T09:45:59.836Z,57.72
2018-09-02T09:46:59.824Z,56.39
2018-09-02T09:47:59.805Z,55.19
2018-09-02T09:48:59.801Z,55.09
2018-09-02T09:49:59.801Z,54.86
2018-09-02T09:50:59.792Z,55.14
2018-09-02T09:51:59.769Z,53.34
2018-09-02T09:52:59.746Z,54.54
2018-09-02T09:53:59.739Z,53.84
2018-09-02T09:54:59.733Z,53.94
2018-09-02T09:55:59.779Z,54.54
2018-09-02T09:56:59.704Z,54.14
2018-09-02T09:57:59.694Z,54.61
2018-09-02T09:58:59.703Z,53.29
2018-09-02T09:59:59.677Z,52.09
2018-09-02T10:00:59.687Z,52.29
2018-09-02T10:01:59.665Z,50.60
2018-09-02T10:02:59.641Z,51.07
2018-09-02T10:03:59.633Z,51.77
2018-09-02T10:04:59.642Z,50.97
2018-09-02T10:05:59.682Z,51.97
2018-09-02T10:06:59.599Z,52.84
2018-09-02T10:07:59.603Z,52.04
2018-09-02T10:08:59.577Z,52.25
2018-09-02T10:09:59.612Z,50.45
2018-09-02T10:10:59.572Z,50.45
2018-09-02T10:11:59.578Z,50.23
2018-09-02T10:12:59.537Z,51.72
2018-09-02T10:13:59.546Z,49.70
2018-09-02T10:14:59.537Z,49.60
2018-09-02T10:15:59.507Z,48.43
2018-09-02T10:16:59.549Z,49.90
2018-09-02T10:17:59.512Z,50.10
2018-09-02T10:18:59.471Z,50.00
2018-09-02T10:19:59.462Z,49.53
2018-09-02T10:20:59.449Z,48.61
2018-09-02T10:21:59.495Z,48.21
2018-09-02T10:22:59.447Z,49.40
2018-09-02T10:23:59.430Z,48.58
2018-09-02T10:24:59.414Z,48.79
2018-09-02T10:25:59.397Z,49.38
2018-09-02T10:26:59.428Z,48.58
2018-09-02T10:27:59.378Z,48.49
2018-09-02T10:28:59.385Z,49.88
2018-09-02T10:29:59.353Z,48.49
2018-09-02T10:30:59.359Z,48.28
2018-09-02T10:31:59.339Z,47.99
2018-09-02T10:32:59.343Z,49.26
2018-09-02T10:33:59.316Z,48.19
2018-09-02T10:34:59.354Z,48.38
2018-09-02T10:35:59.298Z,48.08
2018-09-02T10:36:59.287Z,47.79
2018-09-02T10:37:59.306Z,49.48
2018-09-02T10:38:59.265Z,50.35
2018-09-02T10:39:59.249Z,50.15
2018-09-02T10:40:59.296Z,50.45
2018-09-02T10:41:59.239Z,48.56
2018-09-02T10:42:59.214Z,48.26
2018-09-02T10:43:59.228Z,48.44
2018-09-02T10:44:59.193Z,48.14
2018-09-02T10:45:59.183Z,46.15
2018-09-02T10:46:59.173Z,47.02
2018-09-02T10:47:59.165Z,46.60
2018-09-02T10:48:59.224Z,47.22
2018-09-02T10:49:59.142Z,46.90
2018-09-02T10:50:59.143Z,47.70
2018-09-02T10:51:59.137Z,47.80
2018-09-02T10:52:59.110Z,47.70
2018-09-02T10:53:59.192Z,47.20
2018-09-02T10:54:59.092Z,46.01
2018-09-02T10:55:59.081Z,48.19
2018-09-02T10:56:59.117Z,46.90
2018-09-02T10:57:59.065Z,45.81
2018-09-02T10:58:59.044Z,45.83
2018-09-02T10:59:59.060Z,46.55
2018-09-02T11:00:59.030Z,46.35
2018-09-02T11:01:59.019Z,47.25
2018-09-02T11:02:59.017Z,47.84
2018-09-02T11:03:59.009Z,47.82
2018-09-02T11:04:59.131Z,47.62
2018-09-02T11:05:58.972Z,45.23
2018-09-02T11:06:58.972Z,45.43
2018-09-02T11:07:58.969Z,46.84
2018-09-02T11:08:58.956Z,46.45
2018-09-02T11:09:58.978Z,47.82
2018-09-02T11:10:58.918Z,47.14
2018-09-02T11:11:58.952Z,46.75
2018-09-02T11:12:58.960Z,46.15
2018-09-02T11:13:59.069Z,45.97
2018-09-02T11:14:58.879Z,47.17
2018-09-02T11:15:58.897Z,47.66
2018-09-02T11:16:58.856Z,48.19
2018-09-02T11:17:58.859Z,47.19
2018-09-02T11:18:58.835Z,47.49
2018-09-02T11:19:58.878Z,48.19
2018-09-02T11:20:58.816Z,49.36
2018-09-02T11:21:58.803Z,47.96
2018-09-02T11:22:58.822Z,48.56
2018-09-02T11:23:58.790Z,48.36
2018-09-02T11:24:58.778Z,48.26
2018-09-02T11:25:58.786Z,48.26
2018-09-02T11:26:58.795Z,48.46
2018-09-02T11:27:58.739Z,48.36
2018-09-02T11:28:58.743Z,47.47
2018-09-02T11:29:58.724Z,47.37
2018-09-02T11:30:58.735Z,48.68
2018-09-02T11:31:58.716Z,49.68
2018-09-02T11:32:58.700Z,49.58
2018-09-02T11:33:58.682Z,48.19
2018-09-02T11:34:58.670Z,48.68
2018-09-02T11:35:58.683Z,47.81
2018-09-02T11:36:58.657Z,47.51
2018-09-02T11:37:58.643Z,47.31
2018-09-02T11:38:58.623Z,47.81
2018-09-02T11:39:58.617Z,47.53
2018-09-02T11:40:58.629Z,47.91
2018-09-02T11:41:58.589Z,48.13
2018-09-02T11:42:58.585Z,47.81
2018-09-02T11:43:58.567Z,47.81
2018-09-02T11:44:58.576Z,48.80
2018-09-02T11:45:58.569Z,47.61
2018-09-02T11:46:58.557Z,47.83
2018-09-02T11:47:58.531Z,47.83
2018-09-02T11:48:58.520Z,48.33
2018-09-02T11:49:58.506Z,48.41
2018-09-02T11:50:58.543Z,47.51
2018-09-02T11:51:58.505Z,48.23
2018-09-02T11:52:58.474Z,48.73
2018-09-02T11:53:58.476Z,48.13
2018-09-02T11:54:58.453Z,48.93
2018-09-02T11:55:58.472Z,48.55
2018-09-02T11:56:58.538Z,49.35
2018-09-02T11:57:58.483Z,50.15
2018-09-02T11:58:58.480Z,50.35
2018-09-02T11:59:58.401Z,50.87
2018-09-02T12:00:58.412Z,52.14
2018-09-02T12:01:58.380Z,51.05
2018-09-02T12:02:58.382Z,50.55
2018-09-02T12:03:58.417Z,49.68
2018-09-02T12:04:58.470Z,50.15
2018-09-02T12:05:58.363Z,50.15
2018-09-02T12:06:58.330Z,51.05
2018-09-02T12:07:58.314Z,49.45
2018-09-02T12:08:58.311Z,50.45
2018-09-02T12:09:58.297Z,49.65
2018-09-02T12:10:58.337Z,50.05
2018-09-02T12:11:58.271Z,49.55
2018-09-02T12:12:58.260Z,49.53
2018-09-02T12:13:58.324Z,49.55
2018-09-02T12:14:58.391Z,50.35
2018-09-02T12:15:58.286Z,49.33
2018-09-02T12:16:58.218Z,50.32
2018-09-02T12:17:58.206Z,50.43
2018-09-02T12:18:58.195Z,50.32
2018-09-02T12:19:58.207Z,49.33
2018-09-02T12:20:58.184Z,48.85
2018-09-02T12:21:58.224Z,49.63
2018-09-02T12:22:58.165Z,48.46
2018-09-02T12:23:58.154Z,49.65
2018-09-02T12:24:58.135Z,50.32
2018-09-02T12:25:58.127Z,49.63
2018-09-02T12:26:58.149Z,49.25
2018-09-02T12:27:58.108Z,52.04
2018-09-02T12:28:58.091Z,51.95
2018-09-02T12:29:58.081Z,52.14
2018-09-02T12:30:58.078Z,52.62
2018-09-02T12:31:58.074Z,51.65
2018-09-02T12:32:58.075Z,50.74
2018-09-02T12:33:58.047Z,51.75
2018-09-02T12:34:58.384Z,53.06
2018-09-02T12:35:58.016Z,52.17
2018-09-02T12:36:58.016Z,52.14
2018-09-02T12:37:58.034Z,52.47
2018-09-02T12:38:57.987Z,52.87
2018-09-02T12:39:57.974Z,52.47
2018-09-02T12:40:57.974Z,52.67
2018-09-02T12:41:57.960Z,54.57
2018-09-02T12:42:58.094Z,52.67
2018-09-02T12:43:57.933Z,52.76
2018-09-02T12:44:57.921Z,53.56
2018-09-02T12:45:57.929Z,48.78
2018-09-02T12:46:57.900Z,49.77
2018-09-02T12:47:58.097Z,47.98
2018-09-02T12:48:57.908Z,46.11
2018-09-02T12:49:57.893Z,47.00
2018-09-02T12:50:57.871Z,47.10
2018-09-02T12:51:57.852Z,44.61